X  CloseMetar Aviation Weather Data     EKYT Aalborg

Temperature

10°C Temperature

4°C Dewpoint

67% Humidity



Wind

 5 KM/H

 3 MPH

 1 M/S

 3 KTS



290°
West North
West
Current Conditions

Clear Clear
Pressure 1019.92 (hPa) - 30.12 (in)
Visibility 6.2 (mi) - 10 (km)
Airport
Airport-code EKYT

Location Aalborg 55 (km)

Metar:
EKYT 181720Z AUTO 29003KT 9999 NCD 10/04 Q1020

Time: 18-09-2019 19:20